Terminal Aerodrome Forecast
Issued by NWS

Home | Current Version | Previous Version | Text Only | Print | Product List | Glossary On
Versions: 1 2 3 4 5 6 7 8 9 10 11 12 13 14 15 16
000
FTUS41 KAKQ 220900 AAA
TAFPHF
TAF AMD
KPHF 220911Z 2209/2306 04004KT 6SM -RA OVC045
     FM221100 04010KT 5SM -RA OVC030
     FM221400 05012KT 2SM -RA BR OVC009
     FM221900 06011KT 2SM -DZ BR OVC004
     FM230300 03005KT 4SM BR OVC004=

USA.gov is the U.S. government's official web portal to all federal, state and local government web resources and services.